sensor_id;sensor_type;location;lat;lon;timestamp;temperature;humidity
3602;DHT22;1815;50.950;6.920;2022-07-17T00:01:06;18.50;56.30
3602;DHT22;1815;50.950;6.920;2022-07-17T00:03:31;18.50;56.40
3602;DHT22;1815;50.950;6.920;2022-07-17T00:05:57;18.50;57.20
3602;DHT22;1815;50.950;6.920;2022-07-17T00:08:23;18.40;56.70
3602;DHT22;1815;50.950;6.920;2022-07-17T00:10:49;18.40;56.90
3602;DHT22;1815;50.950;6.920;2022-07-17T00:13:15;18.40;57.20
3602;DHT22;1815;50.950;6.920;2022-07-17T00:15:41;18.30;57.30
3602;DHT22;1815;50.950;6.920;2022-07-17T00:18:07;18.30;57.50
3602;DHT22;1815;50.950;6.920;2022-07-17T00:20:33;18.20;57.50
3602;DHT22;1815;50.950;6.920;2022-07-17T00:22:59;18.20;57.80
3602;DHT22;1815;50.950;6.920;2022-07-17T00:25:25;18.20;57.90
3602;DHT22;1815;50.950;6.920;2022-07-17T00:27:51;18.20;58.20
3602;DHT22;1815;50.950;6.920;2022-07-17T00:30:17;18.10;58.40
3602;DHT22;1815;50.950;6.920;2022-07-17T00:32:43;18.10;58.80
3602;DHT22;1815;50.950;6.920;2022-07-17T00:35:10;18.10;59.00
3602;DHT22;1815;50.950;6.920;2022-07-17T00:37:40;18.10;59.20
3602;DHT22;1815;50.950;6.920;2022-07-17T00:40:09;18.10;59.60
3602;DHT22;1815;50.950;6.920;2022-07-17T00:42:37;18.00;59.40
3602;DHT22;1815;50.950;6.920;2022-07-17T00:45:03;18.00;59.70
3602;DHT22;1815;50.950;6.920;2022-07-17T00:47:29;18.00;60.10
3602;DHT22;1815;50.950;6.920;2022-07-17T00:49:55;18.00;60.50
3602;DHT22;1815;50.950;6.920;2022-07-17T00:52:21;17.90;60.60
3602;DHT22;1815;50.950;6.920;2022-07-17T00:54:47;17.90;61.00
3602;DHT22;1815;50.950;6.920;2022-07-17T00:57:15;17.90;61.10
3602;DHT22;1815;50.950;6.920;2022-07-17T00:59:42;17.90;61.80
3602;DHT22;1815;50.950;6.920;2022-07-17T01:02:12;17.90;62.00
3602;DHT22;1815;50.950;6.920;2022-07-17T01:04:38;17.80;62.50
3602;DHT22;1815;50.950;6.920;2022-07-17T01:07:06;17.80;62.70
3602;DHT22;1815;50.950;6.920;2022-07-17T01:09:33;17.80;63.30
3602;DHT22;1815;50.950;6.920;2022-07-17T01:11:59;17.80;63.60
3602;DHT22;1815;50.950;6.920;2022-07-17T01:14:26;17.70;63.90
3602;DHT22;1815;50.950;6.920;2022-07-17T01:16:53;17.70;64.30
3602;DHT22;1815;50.950;6.920;2022-07-17T01:19:20;17.70;64.70
3602;DHT22;1815;50.950;6.920;2022-07-17T01:21:48;17.60;65.20
3602;DHT22;1815;50.950;6.920;2022-07-17T01:24:14;17.60;65.60
3602;DHT22;1815;50.950;6.920;2022-07-17T01:26:46;17.60;65.90
3602;DHT22;1815;50.950;6.920;2022-07-17T01:29:13;17.60;66.80
3602;DHT22;1815;50.950;6.920;2022-07-17T01:31:40;17.60;66.70
3602;DHT22;1815;50.950;6.920;2022-07-17T01:34:08;17.50;67.30
3602;DHT22;1815;50.950;6.920;2022-07-17T01:36:35;17.50;67.70
3602;DHT22;1815;50.950;6.920;2022-07-17T01:39:02;17.50;68.20
3602;DHT22;1815;50.950;6.920;2022-07-17T01:41:28;17.50;68.40
3602;DHT22;1815;50.950;6.920;2022-07-17T01:43:54;17.50;68.70
3602;DHT22;1815;50.950;6.920;2022-07-17T01:46:20;17.40;69.10
3602;DHT22;1815;50.950;6.920;2022-07-17T01:48:46;17.40;69.50
3602;DHT22;1815;50.950;6.920;2022-07-17T01:51:11;17.40;69.90
3602;DHT22;1815;50.950;6.920;2022-07-17T01:53:37;17.30;70.10
3602;DHT22;1815;50.950;6.920;2022-07-17T01:56:03;17.30;70.40
3602;DHT22;1815;50.950;6.920;2022-07-17T01:58:29;17.20;70.60
3602;DHT22;1815;50.950;6.920;2022-07-17T02:00:55;17.20;71.30
3602;DHT22;1815;50.950;6.920;2022-07-17T02:03:21;17.20;71.90
3602;DHT22;1815;50.950;6.920;2022-07-17T02:05:46;17.10;72.10
3602;DHT22;1815;50.950;6.920;2022-07-17T02:08:12;17.10;72.40
3602;DHT22;1815;50.950;6.920;2022-07-17T02:10:38;17.00;72.70
3602;DHT22;1815;50.950;6.920;2022-07-17T02:13:04;17.00;73.10
3602;DHT22;1815;50.950;6.920;2022-07-17T02:15:30;17.00;73.60
3602;DHT22;1815;50.950;6.920;2022-07-17T02:17:56;16.90;74.00
3602;DHT22;1815;50.950;6.920;2022-07-17T02:20:22;16.90;74.40
3602;DHT22;1815;50.950;6.920;2022-07-17T02:22:48;16.90;74.90
3602;DHT22;1815;50.950;6.920;2022-07-17T02:25:14;16.90;75.50
3602;DHT22;1815;50.950;6.920;2022-07-17T02:27:42;16.80;75.80
3602;DHT22;1815;50.950;6.920;2022-07-17T02:30:11;16.80;76.10
3602;DHT22;1815;50.950;6.920;2022-07-17T02:32:38;16.80;76.60
3602;DHT22;1815;50.950;6.920;2022-07-17T02:35:05;16.70;76.60
3602;DHT22;1815;50.950;6.920;2022-07-17T02:37:31;16.70;77.10
3602;DHT22;1815;50.950;6.920;2022-07-17T02:39:57;16.70;77.40
3602;DHT22;1815;50.950;6.920;2022-07-17T02:42:25;16.60;77.80
3602;DHT22;1815;50.950;6.920;2022-07-17T02:44:52;16.60;78.40
3602;DHT22;1815;50.950;6.920;2022-07-17T02:47:44;16.60;78.70
3602;DHT22;1815;50.950;6.920;2022-07-17T02:50:10;16.50;80.30
3602;DHT22;1815;50.950;6.920;2022-07-17T02:52:36;16.50;79.40
3602;DHT22;1815;50.950;6.920;2022-07-17T02:55:02;16.50;79.80
3602;DHT22;1815;50.950;6.920;2022-07-17T02:57:28;16.50;80.30
3602;DHT22;1815;50.950;6.920;2022-07-17T02:59:54;16.50;80.70
3602;DHT22;1815;50.950;6.920;2022-07-17T03:02:19;16.50;81.00
3602;DHT22;1815;50.950;6.920;2022-07-17T03:04:45;16.40;81.30
3602;DHT22;1815;50.950;6.920;2022-07-17T03:07:11;16.40;81.70
3602;DHT22;1815;50.950;6.920;2022-07-17T03:09:37;16.40;82.10
3602;DHT22;1815;50.950;6.920;2022-07-17T03:12:03;16.40;82.40
3602;DHT22;1815;50.950;6.920;2022-07-17T03:14:28;16.30;82.80
3602;DHT22;1815;50.950;6.920;2022-07-17T03:16:54;16.30;83.30
3602;DHT22;1815;50.950;6.920;2022-07-17T03:19:20;16.30;83.70
3602;DHT22;1815;50.950;6.920;2022-07-17T03:21:46;16.30;84.10
3602;DHT22;1815;50.950;6.920;2022-07-17T03:24:12;16.30;84.60
3602;DHT22;1815;50.950;6.920;2022-07-17T03:26:37;16.30;84.90
3602;DHT22;1815;50.950;6.920;2022-07-17T03:29:03;16.30;85.30
3602;DHT22;1815;50.950;6.920;2022-07-17T03:31:30;16.30;85.80
3602;DHT22;1815;50.950;6.920;2022-07-17T03:33:55;16.30;86.10
3602;DHT22;1815;50.950;6.920;2022-07-17T03:36:21;16.30;86.40
3602;DHT22;1815;50.950;6.920;2022-07-17T03:38:47;16.30;86.70
3602;DHT22;1815;50.950;6.920;2022-07-17T03:41:13;16.30;87.00
3602;DHT22;1815;50.950;6.920;2022-07-17T03:43:38;16.20;87.30
3602;DHT22;1815;50.950;6.920;2022-07-17T03:46:04;16.20;87.80
3602;DHT22;1815;50.950;6.920;2022-07-17T03:48:30;16.20;88.10
3602;DHT22;1815;50.950;6.920;2022-07-17T03:50:56;16.20;88.50
3602;DHT22;1815;50.950;6.920;2022-07-17T03:53:21;16.20;88.90
3602;DHT22;1815;50.950;6.920;2022-07-17T03:55:47;16.20;89.30
3602;DHT22;1815;50.950;6.920;2022-07-17T03:58:13;16.20;89.80
3602;DHT22;1815;50.950;6.920;2022-07-17T04:00:39;16.20;90.00
3602;DHT22;1815;50.950;6.920;2022-07-17T04:03:04;16.20;90.10
3602;DHT22;1815;50.950;6.920;2022-07-17T04:05:30;16.20;90.30
3602;DHT22;1815;50.950;6.920;2022-07-17T04:07:56;16.20;90.50
3602;DHT22;1815;50.950;6.920;2022-07-17T04:10:22;16.20;90.60
3602;DHT22;1815;50.950;6.920;2022-07-17T04:12:48;16.20;90.70
3602;DHT22;1815;50.950;6.920;2022-07-17T04:15:14;16.20;90.90
3602;DHT22;1815;50.950;6.920;2022-07-17T04:17:59;16.20;91.00
3602;DHT22;1815;50.950;6.920;2022-07-17T04:20:25;16.30;91.10
3602;DHT22;1815;50.950;6.920;2022-07-17T04:22:51;16.30;91.30
3602;DHT22;1815;50.950;6.920;2022-07-17T04:25:17;16.30;91.50
3602;DHT22;1815;50.950;6.920;2022-07-17T04:27:43;16.20;91.60
3602;DHT22;1815;50.950;6.920;2022-07-17T04:30:09;16.30;91.80
3602;DHT22;1815;50.950;6.920;2022-07-17T04:32:35;16.30;92.00
3602;DHT22;1815;50.950;6.920;2022-07-17T04:35:01;16.30;92.10
3602;DHT22;1815;50.950;6.920;2022-07-17T04:37:27;16.40;92.50
3602;DHT22;1815;50.950;6.920;2022-07-17T04:39:52;16.40;92.40
3602;DHT22;1815;50.950;6.920;2022-07-17T04:42:18;16.40;92.50
3602;DHT22;1815;50.950;6.920;2022-07-17T04:44:44;16.40;93.00
3602;DHT22;1815;50.950;6.920;2022-07-17T04:47:10;16.40;93.10
3602;DHT22;1815;50.950;6.920;2022-07-17T04:49:35;16.40;93.20
3602;DHT22;1815;50.950;6.920;2022-07-17T04:52:01;16.40;93.30
3602;DHT22;1815;50.950;6.920;2022-07-17T04:54:27;16.40;93.60
3602;DHT22;1815;50.950;6.920;2022-07-17T04:56:53;16.50;93.80
3602;DHT22;1815;50.950;6.920;2022-07-17T04:59:18;16.60;94.20
3602;DHT22;1815;50.950;6.920;2022-07-17T05:01:44;16.80;94.40
3602;DHT22;1815;50.950;6.920;2022-07-17T05:04:10;16.90;94.70
3602;DHT22;1815;50.950;6.920;2022-07-17T05:06:36;17.10;94.70
3602;DHT22;1815;50.950;6.920;2022-07-17T05:09:02;17.20;94.40
3602;DHT22;1815;50.950;6.920;2022-07-17T05:11:27;17.30;94.20
3602;DHT22;1815;50.950;6.920;2022-07-17T05:13:53;17.30;94.10
3602;DHT22;1815;50.950;6.920;2022-07-17T05:16:19;17.30;94.00
3602;DHT22;1815;50.950;6.920;2022-07-17T05:18:45;17.40;94.10
3602;DHT22;1815;50.950;6.920;2022-07-17T05:21:10;17.40;94.50
3602;DHT22;1815;50.950;6.920;2022-07-17T05:23:36;17.50;94.20
3602;DHT22;1815;50.950;6.920;2022-07-17T05:26:02;17.60;94.20
3602;DHT22;1815;50.950;6.920;2022-07-17T05:28:28;17.60;94.20
3602;DHT22;1815;50.950;6.920;2022-07-17T05:30:53;17.70;94.10
3602;DHT22;1815;50.950;6.920;2022-07-17T05:33:19;17.70;94.10
3602;DHT22;1815;50.950;6.920;2022-07-17T05:35:45;17.80;94.30
3602;DHT22;1815;50.950;6.920;2022-07-17T05:38:11;17.80;94.20
3602;DHT22;1815;50.950;6.920;2022-07-17T05:40:37;17.80;94.10
3602;DHT22;1815;50.950;6.920;2022-07-17T05:43:02;17.80;94.10
3602;DHT22;1815;50.950;6.920;2022-07-17T05:45:28;17.90;94.20
3602;DHT22;1815;50.950;6.920;2022-07-17T05:47:54;18.00;94.30
3602;DHT22;1815;50.950;6.920;2022-07-17T05:50:20;18.10;94.50
3602;DHT22;1815;50.950;6.920;2022-07-17T05:52:46;18.20;94.50
3602;DHT22;1815;50.950;6.920;2022-07-17T05:55:11;18.40;94.60
3602;DHT22;1815;50.950;6.920;2022-07-17T05:57:37;18.50;94.60
3602;DHT22;1815;50.950;6.920;2022-07-17T06:00:03;18.80;94.80
3602;DHT22;1815;50.950;6.920;2022-07-17T06:02:37;19.20;95.00
3602;DHT22;1815;50.950;6.920;2022-07-17T06:05:03;19.70;95.10
3602;DHT22;1815;50.950;6.920;2022-07-17T06:07:29;20.40;95.60
3602;DHT22;1815;50.950;6.920;2022-07-17T06:09:55;21.20;95.80
3602;DHT22;1815;50.950;6.920;2022-07-17T06:12:21;22.20;96.00
3602;DHT22;1815;50.950;6.920;2022-07-17T06:14:46;23.30;95.50
3602;DHT22;1815;50.950;6.920;2022-07-17T06:17:12;24.40;94.50
3602;DHT22;1815;50.950;6.920;2022-07-17T06:19:39;25.10;93.10
3602;DHT22;1815;50.950;6.920;2022-07-17T06:22:05;26.10;92.30
3602;DHT22;1815;50.950;6.920;2022-07-17T06:24:30;27.10;90.90
3602;DHT22;1815;50.950;6.920;2022-07-17T06:26:56;27.80;86.40
3602;DHT22;1815;50.950;6.920;2022-07-17T06:29:22;28.10;81.30
3602;DHT22;1815;50.950;6.920;2022-07-17T06:31:48;28.60;79.80
3602;DHT22;1815;50.950;6.920;2022-07-17T06:34:14;29.00;76.00
3602;DHT22;1815;50.950;6.920;2022-07-17T06:36:40;29.40;74.50
3602;DHT22;1815;50.950;6.920;2022-07-17T06:39:06;30.00;74.00
3602;DHT22;1815;50.950;6.920;2022-07-17T06:41:31;30.60;71.10
3602;DHT22;1815;50.950;6.920;2022-07-17T06:43:57;31.10;68.70
3602;DHT22;1815;50.950;6.920;2022-07-17T06:46:23;31.70;66.70
3602;DHT22;1815;50.950;6.920;2022-07-17T06:48:49;31.80;61.90
3602;DHT22;1815;50.950;6.920;2022-07-17T06:51:17;32.10;59.90
3602;DHT22;1815;50.950;6.920;2022-07-17T06:53:43;32.00;58.60
3602;DHT22;1815;50.950;6.920;2022-07-17T06:56:09;32.30;57.90
3602;DHT22;1815;50.950;6.920;2022-07-17T06:58:35;32.50;57.80
3602;DHT22;1815;50.950;6.920;2022-07-17T07:01:01;32.80;55.80
3602;DHT22;1815;50.950;6.920;2022-07-17T07:03:26;32.90;55.00
3602;DHT22;1815;50.950;6.920;2022-07-17T07:05:52;33.00;53.90
3602;DHT22;1815;50.950;6.920;2022-07-17T07:08:18;33.20;53.80
3602;DHT22;1815;50.950;6.920;2022-07-17T07:10:43;33.70;53.50
3602;DHT22;1815;50.950;6.920;2022-07-17T07:13:09;34.20;53.00
3602;DHT22;1815;50.950;6.920;2022-07-17T07:15:35;34.50;51.90
3602;DHT22;1815;50.950;6.920;2022-07-17T07:18:01;34.70;50.70
3602;DHT22;1815;50.950;6.920;2022-07-17T07:20:27;35.00;49.70
3602;DHT22;1815;50.950;6.920;2022-07-17T07:22:53;35.10;48.20
3602;DHT22;1815;50.950;6.920;2022-07-17T07:25:19;35.20;46.90
3602;DHT22;1815;50.950;6.920;2022-07-17T07:27:46;35.20;46.90
3602;DHT22;1815;50.950;6.920;2022-07-17T07:30:11;35.30;46.30
3602;DHT22;1815;50.950;6.920;2022-07-17T07:32:38;35.20;45.60
3602;DHT22;1815;50.950;6.920;2022-07-17T07:35:05;35.20;45.60
3602;DHT22;1815;50.950;6.920;2022-07-17T07:37:32;35.20;44.20
3602;DHT22;1815;50.950;6.920;2022-07-17T07:39:58;35.20;44.00
3602;DHT22;1815;50.950;6.920;2022-07-17T07:42:25;35.10;42.50
3602;DHT22;1815;50.950;6.920;2022-07-17T07:44:51;34.80;42.60
3602;DHT22;1815;50.950;6.920;2022-07-17T07:47:17;35.10;43.30
3602;DHT22;1815;50.950;6.920;2022-07-17T07:49:43;35.30;43.40
3602;DHT22;1815;50.950;6.920;2022-07-17T07:52:09;35.60;43.40
3602;DHT22;1815;50.950;6.920;2022-07-17T07:54:35;35.80;43.30
3602;DHT22;1815;50.950;6.920;2022-07-17T07:57:01;36.30;43.30
3602;DHT22;1815;50.950;6.920;2022-07-17T07:59:28;36.80;42.80
3602;DHT22;1815;50.950;6.920;2022-07-17T08:01:58;37.20;42.30
3602;DHT22;1815;50.950;6.920;2022-07-17T08:04:24;37.80;42.30
3602;DHT22;1815;50.950;6.920;2022-07-17T08:06:50;38.30;41.10
3602;DHT22;1815;50.950;6.920;2022-07-17T08:09:16;38.50;40.30
3602;DHT22;1815;50.950;6.920;2022-07-17T08:11:49;38.80;40.00
3602;DHT22;1815;50.950;6.920;2022-07-17T08:14:15;39.10;39.20
3602;DHT22;1815;50.950;6.920;2022-07-17T08:16:41;38.90;37.40
3602;DHT22;1815;50.950;6.920;2022-07-17T08:19:07;38.80;37.80
3602;DHT22;1815;50.950;6.920;2022-07-17T08:21:32;39.00;38.10
3602;DHT22;1815;50.950;6.920;2022-07-17T08:23:58;39.20;37.30
3602;DHT22;1815;50.950;6.920;2022-07-17T08:26:24;39.10;36.00
3602;DHT22;1815;50.950;6.920;2022-07-17T08:28:50;39.00;36.40
3602;DHT22;1815;50.950;6.920;2022-07-17T08:31:16;39.20;36.90
3602;DHT22;1815;50.950;6.920;2022-07-17T08:33:42;39.40;36.60
3602;DHT22;1815;50.950;6.920;2022-07-17T08:36:07;39.70;37.10
3602;DHT22;1815;50.950;6.920;2022-07-17T08:38:33;40.20;36.70
3602;DHT22;1815;50.950;6.920;2022-07-17T08:40:59;40.60;36.10
3602;DHT22;1815;50.950;6.920;2022-07-17T08:43:25;40.90;35.70
3602;DHT22;1815;50.950;6.920;2022-07-17T08:45:51;41.30;35.00
3602;DHT22;1815;50.950;6.920;2022-07-17T08:48:18;41.60;34.50
3602;DHT22;1815;50.950;6.920;2022-07-17T08:50:46;42.00;34.10
3602;DHT22;1815;50.950;6.920;2022-07-17T08:53:14;42.00;33.40
3602;DHT22;1815;50.950;6.920;2022-07-17T08:55:40;42.20;33.30
3602;DHT22;1815;50.950;6.920;2022-07-17T08:58:05;42.30;33.40
3602;DHT22;1815;50.950;6.920;2022-07-17T09:00:31;42.50;32.40
3602;DHT22;1815;50.950;6.920;2022-07-17T09:03:01;42.60;31.80
3602;DHT22;1815;50.950;6.920;2022-07-17T09:05:33;42.80;31.80
3602;DHT22;1815;50.950;6.920;2022-07-17T09:07:59;43.00;31.70
3602;DHT22;1815;50.950;6.920;2022-07-17T09:13:00;43.30;30.30
3602;DHT22;1815;50.950;6.920;2022-07-17T09:15:26;43.40;30.00
3602;DHT22;1815;50.950;6.920;2022-07-17T09:17:55;43.40;29.90
3602;DHT22;1815;50.950;6.920;2022-07-17T09:20:21;43.40;29.70
3602;DHT22;1815;50.950;6.920;2022-07-17T09:22:58;43.30;29.10
3602;DHT22;1815;50.950;6.920;2022-07-17T09:25:39;43.20;29.10
3602;DHT22;1815;50.950;6.920;2022-07-17T09:28:07;43.30;29.10
3602;DHT22;1815;50.950;6.920;2022-07-17T09:30:36;43.20;28.80
3602;DHT22;1815;50.950;6.920;2022-07-17T09:33:04;43.30;28.90
3602;DHT22;1815;50.950;6.920;2022-07-17T09:35:31;43.40;28.80
3602;DHT22;1815;50.950;6.920;2022-07-17T09:37:56;43.30;28.70
3602;DHT22;1815;50.950;6.920;2022-07-17T09:40:22;43.30;28.70
3602;DHT22;1815;50.950;6.920;2022-07-17T09:43:08;43.50;29.00
3602;DHT22;1815;50.950;6.920;2022-07-17T09:45:34;43.60;28.50
3602;DHT22;1815;50.950;6.920;2022-07-17T09:48:02;43.80;28.10
3602;DHT22;1815;50.950;6.920;2022-07-17T09:50:28;43.80;28.00
3602;DHT22;1815;50.950;6.920;2022-07-17T09:52:56;43.90;28.20
3602;DHT22;1815;50.950;6.920;2022-07-17T09:55:28;44.00;27.80
3602;DHT22;1815;50.950;6.920;2022-07-17T09:57:55;44.10;27.70
3602;DHT22;1815;50.950;6.920;2022-07-17T10:00:28;44.10;27.70
3602;DHT22;1815;50.950;6.920;2022-07-17T10:02:54;44.20;27.70
3602;DHT22;1815;50.950;6.920;2022-07-17T10:05:20;44.30;27.90
3602;DHT22;1815;50.950;6.920;2022-07-17T10:07:47;44.20;27.50
3602;DHT22;1815;50.950;6.920;2022-07-17T10:10:15;44.10;27.20
3602;DHT22;1815;50.950;6.920;2022-07-17T10:12:49;44.10;27.40
3602;DHT22;1815;50.950;6.920;2022-07-17T10:15:24;44.10;26.70
3602;DHT22;1815;50.950;6.920;2022-07-17T10:18:06;44.10;26.60
3602;DHT22;1815;50.950;6.920;2022-07-17T10:20:41;44.00;26.80
3602;DHT22;1815;50.950;6.920;2022-07-17T10:23:19;43.90;26.70
3602;DHT22;1815;50.950;6.920;2022-07-17T10:26:41;43.80;26.30
3602;DHT22;1815;50.950;6.920;2022-07-17T10:29:33;43.80;26.50
3602;DHT22;1815;50.950;6.920;2022-07-17T10:32:16;43.70;26.20
3602;DHT22;1815;50.950;6.920;2022-07-17T10:35:02;43.50;26.40
3602;DHT22;1815;50.950;6.920;2022-07-17T10:37:41;43.40;25.70
3602;DHT22;1815;50.950;6.920;2022-07-17T10:40:11;43.20;25.70
3602;DHT22;1815;50.950;6.920;2022-07-17T10:48:21;43.20;26.20
3602;DHT22;1815;50.950;6.920;2022-07-17T10:51:15;43.00;25.40
3602;DHT22;1815;50.950;6.920;2022-07-17T10:53:56;42.90;25.70
3602;DHT22;1815;50.950;6.920;2022-07-17T10:56:25;42.60;25.10
3602;DHT22;1815;50.950;6.920;2022-07-17T10:58:52;42.30;24.80
3602;DHT22;1815;50.950;6.920;2022-07-17T11:01:21;42.00;25.20
3602;DHT22;1815;50.950;6.920;2022-07-17T11:03:54;41.90;25.50
3602;DHT22;1815;50.950;6.920;2022-07-17T11:08:52;41.50;25.20
3602;DHT22;1815;50.950;6.920;2022-07-17T11:11:34;41.20;25.60
3602;DHT22;1815;50.950;6.920;2022-07-17T11:14:19;41.00;25.80
3602;DHT22;1815;50.950;6.920;2022-07-17T11:19:49;40.60;25.60
3602;DHT22;1815;50.950;6.920;2022-07-17T11:22:28;40.40;25.60
3602;DHT22;1815;50.950;6.920;2022-07-17T11:24:58;40.20;26.10
3602;DHT22;1815;50.950;6.920;2022-07-17T11:27:25;40.00;26.00
3602;DHT22;1815;50.950;6.920;2022-07-17T11:29:53;39.90;26.30
3602;DHT22;1815;50.950;6.920;2022-07-17T11:32:19;39.80;26.30
3602;DHT22;1815;50.950;6.920;2022-07-17T11:34:47;39.50;26.00
3602;DHT22;1815;50.950;6.920;2022-07-17T11:37:13;39.40;26.70
3602;DHT22;1815;50.950;6.920;2022-07-17T11:39:44;39.10;25.80
3602;DHT22;1815;50.950;6.920;2022-07-17T11:42:20;38.90;26.10
3602;DHT22;1815;50.950;6.920;2022-07-17T11:44:49;38.70;26.30
3602;DHT22;1815;50.950;6.920;2022-07-17T11:47:28;38.70;26.70
3602;DHT22;1815;50.950;6.920;2022-07-17T11:50:10;38.60;26.60
3602;DHT22;1815;50.950;6.920;2022-07-17T11:52:44;38.50;26.70
3602;DHT22;1815;50.950;6.920;2022-07-17T11:55:11;38.40;26.40
3602;DHT22;1815;50.950;6.920;2022-07-17T11:57:56;38.10;26.00
3602;DHT22;1815;50.950;6.920;2022-07-17T12:00:22;37.70;26.20
3602;DHT22;1815;50.950;6.920;2022-07-17T12:03:01;37.40;26.40
3602;DHT22;1815;50.950;6.920;2022-07-17T12:05:29;37.10;26.70
3602;DHT22;1815;50.950;6.920;2022-07-17T12:07:55;37.00;27.10
3602;DHT22;1815;50.950;6.920;2022-07-17T12:10:24;36.80;27.50
3602;DHT22;1815;50.950;6.920;2022-07-17T12:13:08;36.80;27.60
3602;DHT22;1815;50.950;6.920;2022-07-17T12:15:46;36.70;27.50
3602;DHT22;1815;50.950;6.920;2022-07-17T12:18:26;36.60;27.30
3602;DHT22;1815;50.950;6.920;2022-07-17T12:20:54;36.50;27.30
3602;DHT22;1815;50.950;6.920;2022-07-17T12:23:31;36.40;27.30
3602;DHT22;1815;50.950;6.920;2022-07-17T12:26:14;36.20;27.30
3602;DHT22;1815;50.950;6.920;2022-07-17T12:28:43;36.20;27.30
3602;DHT22;1815;50.950;6.920;2022-07-17T12:31:12;36.10;27.10
3602;DHT22;1815;50.950;6.920;2022-07-17T12:33:40;36.00;27.30
3602;DHT22;1815;50.950;6.920;2022-07-17T12:36:06;35.90;27.40
3602;DHT22;1815;50.950;6.920;2022-07-17T12:38:32;35.90;27.40
3602;DHT22;1815;50.950;6.920;2022-07-17T12:40:58;35.80;27.30
3602;DHT22;1815;50.950;6.920;2022-07-17T12:43:24;35.60;27.60
3602;DHT22;1815;50.950;6.920;2022-07-17T12:45:50;35.40;27.70
3602;DHT22;1815;50.950;6.920;2022-07-17T12:48:16;35.20;27.60
3602;DHT22;1815;50.950;6.920;2022-07-17T12:50:42;35.00;27.50
3602;DHT22;1815;50.950;6.920;2022-07-17T12:53:08;34.90;28.10
3602;DHT22;1815;50.950;6.920;2022-07-17T12:55:34;34.70;28.10
3602;DHT22;1815;50.950;6.920;2022-07-17T12:58:03;34.40;27.80
3602;DHT22;1815;50.950;6.920;2022-07-17T13:00:29;34.20;27.70
3602;DHT22;1815;50.950;6.920;2022-07-17T13:02:55;33.90;27.70
3602;DHT22;1815;50.950;6.920;2022-07-17T13:05:21;33.60;27.30
3602;DHT22;1815;50.950;6.920;2022-07-17T13:07:47;33.30;27.30
3602;DHT22;1815;50.950;6.920;2022-07-17T13:10:12;33.00;27.50
3602;DHT22;1815;50.950;6.920;2022-07-17T13:12:38;32.80;27.50
3602;DHT22;1815;50.950;6.920;2022-07-17T13:15:05;32.50;27.50
3602;DHT22;1815;50.950;6.920;2022-07-17T13:17:30;32.20;27.50
3602;DHT22;1815;50.950;6.920;2022-07-17T13:19:57;32.00;27.70
3602;DHT22;1815;50.950;6.920;2022-07-17T13:22:22;31.80;27.70
3602;DHT22;1815;50.950;6.920;2022-07-17T13:24:48;31.70;27.90
3602;DHT22;1815;50.950;6.920;2022-07-17T13:27:14;31.60;28.00
3602;DHT22;1815;50.950;6.920;2022-07-17T13:29:40;31.50;27.90
3602;DHT22;1815;50.950;6.920;2022-07-17T13:32:06;31.50;28.00
3602;DHT22;1815;50.950;6.920;2022-07-17T13:34:32;31.30;28.10
3602;DHT22;1815;50.950;6.920;2022-07-17T13:36:57;31.30;28.20
3602;DHT22;1815;50.950;6.920;2022-07-17T13:39:23;31.20;28.30
3602;DHT22;1815;50.950;6.920;2022-07-17T13:41:50;31.20;28.30
3602;DHT22;1815;50.950;6.920;2022-07-17T13:44:16;31.10;28.20
3602;DHT22;1815;50.950;6.920;2022-07-17T13:46:41;31.00;28.20
3602;DHT22;1815;50.950;6.920;2022-07-17T13:49:07;30.90;28.10
3602;DHT22;1815;50.950;6.920;2022-07-17T13:51:34;30.90;28.20
3602;DHT22;1815;50.950;6.920;2022-07-17T13:54:00;30.80;28.00
3602;DHT22;1815;50.950;6.920;2022-07-17T13:56:45;30.70;27.90
3602;DHT22;1815;50.950;6.920;2022-07-17T13:59:11;30.50;27.80
3602;DHT22;1815;50.950;6.920;2022-07-17T14:01:36;30.60;28.10
3602;DHT22;1815;50.950;6.920;2022-07-17T14:04:03;30.50;28.10
3602;DHT22;1815;50.950;6.920;2022-07-17T14:06:28;30.60;28.20
3602;DHT22;1815;50.950;6.920;2022-07-17T14:08:55;30.50;28.30
3602;DHT22;1815;50.950;6.920;2022-07-17T14:11:20;30.50;28.60
3602;DHT22;1815;50.950;6.920;2022-07-17T14:14:25;30.50;28.80
3602;DHT22;1815;50.950;6.920;2022-07-17T14:16:52;30.40;29.10
3602;DHT22;1815;50.950;6.920;2022-07-17T14:19:18;30.50;29.00
3602;DHT22;1815;50.950;6.920;2022-07-17T14:21:44;30.60;29.20
3602;DHT22;1815;50.950;6.920;2022-07-17T14:24:10;30.60;29.30
3602;DHT22;1815;50.950;6.920;2022-07-17T14:26:36;30.60;29.20
3602;DHT22;1815;50.950;6.920;2022-07-17T14:29:03;30.50;29.20
3602;DHT22;1815;50.950;6.920;2022-07-17T14:31:30;30.50;29.30
3602;DHT22;1815;50.950;6.920;2022-07-17T14:33:56;30.50;29.40
3602;DHT22;1815;50.950;6.920;2022-07-17T14:36:21;30.50;29.30
3602;DHT22;1815;50.950;6.920;2022-07-17T14:38:48;30.50;29.30
3602;DHT22;1815;50.950;6.920;2022-07-17T14:41:14;30.50;29.40
3602;DHT22;1815;50.950;6.920;2022-07-17T14:43:40;30.50;29.50
3602;DHT22;1815;50.950;6.920;2022-07-17T14:46:05;30.50;29.50
3602;DHT22;1815;50.950;6.920;2022-07-17T14:48:31;30.50;29.70
3602;DHT22;1815;50.950;6.920;2022-07-17T14:50:57;30.40;29.50
3602;DHT22;1815;50.950;6.920;2022-07-17T14:53:23;30.40;29.50
3602;DHT22;1815;50.950;6.920;2022-07-17T14:55:49;30.40;29.50
3602;DHT22;1815;50.950;6.920;2022-07-17T14:58:15;30.40;29.60
3602;DHT22;1815;50.950;6.920;2022-07-17T15:00:40;30.40;29.70
3602;DHT22;1815;50.950;6.920;2022-07-17T15:03:06;30.40;29.70
3602;DHT22;1815;50.950;6.920;2022-07-17T15:05:32;30.50;29.90
3602;DHT22;1815;50.950;6.920;2022-07-17T15:07:59;30.50;30.00
3602;DHT22;1815;50.950;6.920;2022-07-17T15:10:25;30.60;30.00
3602;DHT22;1815;50.950;6.920;2022-07-17T15:12:50;30.60;30.00
3602;DHT22;1815;50.950;6.920;2022-07-17T15:15:16;30.60;29.90
3602;DHT22;1815;50.950;6.920;2022-07-17T15:17:42;30.70;30.00
3602;DHT22;1815;50.950;6.920;2022-07-17T15:20:08;30.70;29.80
3602;DHT22;1815;50.950;6.920;2022-07-17T15:22:35;30.80;29.80
3602;DHT22;1815;50.950;6.920;2022-07-17T15:25:00;30.80;29.80
3602;DHT22;1815;50.950;6.920;2022-07-17T15:27:26;30.80;29.90
3602;DHT22;1815;50.950;6.920;2022-07-17T15:29:52;30.90;30.00
3602;DHT22;1815;50.950;6.920;2022-07-17T15:32:18;30.90;30.00
3602;DHT22;1815;50.950;6.920;2022-07-17T15:34:44;31.00;30.00
3602;DHT22;1815;50.950;6.920;2022-07-17T15:37:10;31.00;30.20
3602;DHT22;1815;50.950;6.920;2022-07-17T15:39:35;31.00;30.20
3602;DHT22;1815;50.950;6.920;2022-07-17T15:42:02;31.10;30.10
3602;DHT22;1815;50.950;6.920;2022-07-17T15:44:28;31.10;30.00
3602;DHT22;1815;50.950;6.920;2022-07-17T15:46:54;31.10;29.90
3602;DHT22;1815;50.950;6.920;2022-07-17T15:49:20;31.10;30.00
3602;DHT22;1815;50.950;6.920;2022-07-17T15:51:47;31.10;29.80
3602;DHT22;1815;50.950;6.920;2022-07-17T15:54:13;31.10;29.90
3602;DHT22;1815;50.950;6.920;2022-07-17T15:56:40;31.10;29.80
3602;DHT22;1815;50.950;6.920;2022-07-17T15:59:06;31.10;29.80
3602;DHT22;1815;50.950;6.920;2022-07-17T16:01:32;31.20;29.70
3602;DHT22;1815;50.950;6.920;2022-07-17T16:03:58;31.10;29.60
3602;DHT22;1815;50.950;6.920;2022-07-17T16:06:23;31.10;29.50
3602;DHT22;1815;50.950;6.920;2022-07-17T16:08:49;31.10;29.60
3602;DHT22;1815;50.950;6.920;2022-07-17T16:11:18;31.10;29.80
3602;DHT22;1815;50.950;6.920;2022-07-17T16:13:44;31.10;30.00
3602;DHT22;1815;50.950;6.920;2022-07-17T16:16:09;31.10;29.60
3602;DHT22;1815;50.950;6.920;2022-07-17T16:18:35;31.20;29.60